Date,TemperatureHighF,TemperatureAvgF,TemperatureLowF,DewpointHighF,DewpointAvgF,DewpointLowF,HumidityHigh,HumidityAvg,HumidityLow,PressureMaxIn,PressureMinIn,WindSpeedMaxMPH,WindSpeedAvgMPH,GustSpeedMaxMPH,PrecipitationSumIn
2013-1-1,24,14,7,-100,-100,-100,0,0,100,0.00,40.00,0,-999,0,0.01
2013-1-2,14,9,2,-100,-100,-100,0,0,100,0.00,40.00,0,-999,0,0.01
2013-1-3,42,25,7,-100,-100,-100,0,0,100,0.00,40.00,0,-999,0,0.02
2013-1-4,41,30,18,-100,-100,-100,0,0,100,0.00,40.00,0,-999,0,0.01
2013-1-5,32,20,13,-100,-100,-100,0,0,100,0.00,40.00,0,-999,0,0.00
2013-1-6,37,29,23,-100,-100,-100,0,0,100,0.00,40.00,0,-999,0,0.01
2013-1-7,30,24,19,-100,-100,-100,0,0,100,0.00,40.00,0,-999,0,0.00
2013-1-8,27,22,19,-100,-100,-100,0,0,100,0.00,40.00,0,-999,0,0.00
2013-1-9,44,33,23,-100,-100,-100,0,0,100,0.00,40.00,0,-999,0,0.01
2013-1-10,38,33,23,-100,-100,-100,0,0,100,0.00,40.00,0,-999,0,0.01
2013-1-11,20,-1,-12,-100,-100,-100,0,0,100,0.00,40.00,0,-999,0,0.00
2013-1-12,7,-5,-11,-100,-100,-100,0,0,100,0.00,40.00,0,-999,0,0.02
2013-1-13,2,-6,-9,-100,-100,-100,0,0,100,0.00,40.00,0,-999,0,0.01
2013-1-14,8,-2,-10,-100,-100,-100,0,0,100,0.00,40.00,0,-999,0,0.00
2013-1-15,28,21,9,-100,-100,-100,0,0,100,0.00,40.00,0,-999,0,0.04
2013-1-16,34,25,20,-100,-100,-100,0,0,100,0.00,40.00,0,-999,0,0.01
2013-1-17,36,26,19,-100,-100,-100,0,0,100,0.00,40.00,0,-999,0,0.00
2013-1-18,37,30,26,-100,-100,-100,0,0,100,0.00,40.00,0,-999,0,0.01
2013-1-19,36,28,24,-100,-100,-100,0,0,100,0.00,40.00,0,-999,0,0.00
2013-1-20,28,22,14,-100,-100,-100,0,0,100,0.00,40.00,0,-999,0,0.00
2013-1-21,36,27,18,-100,-100,-100,0,0,100,0.00,40.00,0,-999,0,0.01
2013-1-22,41,32,26,-100,-100,-100,0,0,100,0.00,40.00,0,-999,0,0.00
2013-1-23,44,36,33,-100,-100,-100,0,0,100,0.00,40.00,0,-999,0,0.01
2013-1-24,37,32,25,-100,-100,-100,0,0,100,0.00,40.00,0,-999,0,0.00
2013-1-25,40,30,25,-100,-100,-100,0,0,100,0.00,40.00,0,-999,0,0.00
2013-1-26,41,32,26,-100,-100,-100,0,0,100,0.00,40.00,0,-999,0,0.00
2013-1-27,38,26,16,-100,-100,-100,0,0,100,0.00,40.00,0,-999,0,0.00
2013-1-28,20,13,5,-100,-100,-100,0,0,100,0.00,40.00,0,-999,0,0.00
2013-1-29,14,6,-2,-100,-100,-100,0,0,100,0.00,40.00,0,-999,0,0.00
2013-1-30,20,14,2,-100,-100,-100,0,0,100,0.00,40.00,0,-999,0,0.02
2013-1-31,23,20,11,-100,-100,-100,0,0,100,0.00,40.00,0,-999,0,0.02
2013-2-1,27,22,18,-100,-100,-100,0,0,100,0.00,40.00,0,-999,0,0.01
2013-2-2,31,22,15,-100,-100,-100,0,0,100,0.00,40.00,0,-999,0,0.01
2013-2-3,35,25,20,-100,-100,-100,0,0,100,0.00,40.00,0,-999,0,0.00
2013-2-4,33,25,21,-100,-100,-100,0,0,100,0.00,40.00,0,-999,0,0.00
2013-2-5,33,26,18,-100,-100,-100,0,0,100,0.00,40.00,0,-999,0,0.00
2013-2-6,29,22,15,-100,-100,-100,0,0,100,0.00,40.00,0,-999,0,0.00
2013-2-7,33,22,14,-100,-100,-100,0,0,100,0.00,40.00,0,-999,0,0.00
2013-2-8,32,23,15,-100,-100,-100,0,0,100,0.00,40.00,0,-999,0,0.01
2013-2-9,24,18,14,-100,-100,-100,0,0,100,0.00,40.00,0,-999,0,0.00
2013-2-10,13,9,2,-100,-100,-100,0,0,100,0.00,40.00,0,-999,0,0.01
2013-2-11,20,11,-1,-100,-100,-100,0,0,100,0.00,40.00,0,-999,0,0.01
2013-2-12,28,19,11,-100,-100,-100,0,0,100,0.00,40.00,0,-999,0,0.01
2013-2-13,28,22,18,-100,-100,-100,0,0,100,0.00,40.00,0,-999,0,0.01
2013-2-14,18,12,7,-100,-100,-100,0,0,100,0.00,40.00,0,-999,0,0.01
2013-2-15,26,18,10,-100,-100,-100,0,0,100,0.00,40.00,0,-999,0,0.03
2013-2-16,38,28,22,-100,-100,-100,0,0,100,0.00,40.00,0,-999,0,0.01
2013-2-17,28,22,13,-100,-100,-100,0,0,100,0.00,40.00,0,-999,0,0.00
2013-2-18,18,13,9,-100,-100,-100,0,0,100,0.00,40.00,0,-999,0,0.00
2013-2-19,38,23,7,-100,-100,-100,0,0,100,0.00,40.00,0,-999,0,0.01
2013-2-20,34,23,11,-100,-100,-100,0,0,100,0.00,40.00,0,-999,0,0.01
2013-2-21,28,15,6,-100,-100,-100,0,0,100,0.00,40.00,0,-999,0,0.00
2013-2-22,23,13,5,-100,-100,-100,0,0,100,0.00,40.00,0,-999,0,0.00
2013-2-23,27,19,12,-100,-100,-100,0,0,100,0.00,40.00,0,-999,0,0.01
2013-2-24,23,14,10,-100,-100,-100,0,0,100,0.00,40.00,0,-999,0,0.01
2013-2-25,35,23,11,-100,-100,-100,0,0,100,0.00,40.00,0,-999,0,0.01
2013-2-26,20,15,11,-100,-100,-100,0,0,100,0.00,40.00,0,-999,0,0.01
2013-2-27,23,14,6,-100,-100,-100,0,0,100,0.00,40.00,0,-999,0,0.01
2013-2-28,26,18,11,-100,-100,-100,0,0,100,0.00,40.00,0,-999,0,0.00
2013-3-1,35,27,16,-100,-100,-100,0,0,100,0.00,40.00,0,-999,0,0.01
2013-3-2,47,34,26,-100,-100,-100,0,0,100,0.00,40.00,0,-999,0,0.01
2013-3-3,40,29,12,-100,-100,-100,0,0,100,0.00,40.00,0,-999,0,0.01
2013-3-4,12,6,-1,-100,-100,-100,0,0,100,0.00,40.00,0,-999,0,0.00
2013-3-5,34,20,4,-100,-100,-100,0,0,100,0.00,40.00,0,-999,0,0.02
2013-3-6,43,33,25,-100,-100,-100,0,0,100,0.00,40.00,0,-999,0,0.01
2013-3-7,40,26,20,-100,-100,-100,0,0,100,0.00,40.00,0,-999,0,0.00
2013-3-8,47,32,23,-100,-100,-100,0,0,100,0.00,40.00,0,-999,0,0.00
2013-3-9,25,19,12,-100,-100,-100,0,0,100,0.00,40.00,0,-999,0,0.00
2013-3-10,44,27,11,-100,-100,-100,0,0,100,0.00,40.00,0,-999,0,0.00
2013-3-11,27,20,9,-100,-100,-100,0,0,100,0.00,40.00,0,-999,0,0.01
2013-3-12,34,21,8,-100,-100,-100,0,0,100,0.00,40.00,0,-999,0,0.01
2013-3-13,49,36,27,-100,-100,-100,0,0,100,0.00,40.00,0,-999,0,0.01
2013-3-14,50,40,32,-100,-100,-100,0,0,100,0.00,40.00,0,-999,0,0.01
2013-3-15,47,38,27,-100,-100,-100,0,0,100,0.00,40.00,0,-999,0,0.00
2013-3-16,42,29,25,-100,-100,-100,0,0,100,0.00,40.00,0,-999,0,0.00
2013-3-17,29,21,12,-100,-100,-100,0,0,100,0.00,40.00,0,-999,0,0.00
2013-3-18,21,14,7,-100,-100,-100,0,0,100,0.00,40.00,0,-999,0,0.00
2013-3-19,22,16,8,-100,-100,-100,0,0,100,0.00,40.00,0,-999,0,0.01
2013-3-20,41,31,15,-100,-100,-100,0,0,100,0.00,40.00,0,-999,0,0.01
2013-3-21,31,22,11,-100,-100,-100,0,0,100,0.00,40.00,0,-999,0,0.01
2013-3-22,22,11,1,-100,-100,-100,0,0,100,0.00,40.00,0,-999,0,0.00
2013-3-23,21,7,-5,-100,-100,-100,0,0,100,0.00,40.00,0,-999,0,0.01
2013-3-24,11,4,-3,-100,-100,-100,0,0,100,0.00,40.00,0,-999,0,0.00
2013-3-25,31,18,-2,-100,-100,-100,0,0,100,0.00,40.00,0,-999,0,0.01
2013-3-26,36,25,16,-100,-100,-100,0,0,100,0.00,40.00,0,-999,0,0.01
2013-3-27,43,29,19,-100,-100,-100,0,0,100,0.00,40.00,0,-999,0,0.00
2013-3-28,47,35,26,-100,-100,-100,0,0,100,0.00,40.00,0,-999,0,0.01
2013-3-29,45,37,29,-100,-100,-100,0,0,100,0.00,40.00,0,-999,0,0.00
2013-3-30,38,31,26,-100,-100,-100,0,0,100,0.00,40.00,0,-999,0,0.00
2013-3-31,43,31,21,-100,-100,-100,0,0,100,0.00,40.00,0,-999,0,0.00
2013-4-1,40,30,21,-100,-100,-100,0,0,100,0.00,40.00,0,-999,0,0.00
2013-4-2,50,35,24,-100,-100,-100,0,0,100,0.00,40.00,0,-999,0,0.00
2013-4-3,51,38,28,-100,-100,-100,0,0,100,0.00,40.00,0,-999,0,0.00
2013-4-4,51,40,31,-100,-100,-100,0,0,100,0.00,40.00,0,-999,0,0.00
2013-4-5,46,38,29,-100,-100,-100,0,0,100,0.00,40.00,0,-999,0,0.01
2013-4-6,42,33,26,-100,-100,-100,0,0,100,0.00,40.00,0,-999,0,0.00
2013-4-7,40,33,27,-100,-100,-100,0,0,100,0.00,40.00,0,-999,0,0.00
2013-4-8,29,18,5,-100,-100,-100,0,0,100,0.00,40.00,0,-999,0,0.00
2013-4-9,17,9,1,-100,-100,-100,0,0,100,0.00,40.00,0,-999,0,0.02
2013-4-10,33,24,5,-100,-100,-100,0,0,100,0.00,40.00,0,-999,0,0.01
2013-4-11,31,28,24,-100,-100,-100,0,0,100,0.00,40.00,0,-999,0,0.01
2013-4-12,31,25,20,-100,-100,-100,0,0,100,0.00,40.00,0,-999,0,0.00
2013-4-13,40,30,20,-100,-100,-100,0,0,100,0.00,40.00,0,-999,0,0.00
2013-4-14,22,16,11,-100,-100,-100,0,0,100,0.00,40.00,0,-999,0,0.01
2013-4-15,23,13,3,-100,-100,-100,0,0,100,0.00,40.00,0,-999,0,0.01
2013-4-16,18,9,4,-100,-100,-100,0,0,100,0.00,40.00,0,-999,0,0.01
2013-4-17,18,10,1,-100,-100,-100,0,0,100,0.00,40.00,0,-999,0,0.01
2013-4-18,32,19,1,-100,-100,-100,0,0,100,0.00,40.00,0,-999,0,0.01
2013-4-19,37,29,20,-100,-100,-100,0,0,100,0.00,40.00,0,-999,0,0.01
2013-4-20,38,31,25,-100,-100,-100,0,0,100,0.00,40.00,0,-999,0,0.00
2013-4-21,38,27,14,-100,-100,-100,0,0,100,0.00,40.00,0,-999,0,0.01
2013-4-22,21,12,2,-100,-100,-100,0,0,100,0.00,40.00,0,-999,0,0.02
2013-4-23,33,20,2,-100,-100,-100,0,0,100,0.00,40.00,0,-999,0,0.01
2013-4-24,32,28,25,-100,-100,-100,0,0,100,0.00,40.00,0,-999,0,0.00
2013-4-25,45,37,27,-100,-100,-100,0,0,100,0.00,40.00,0,-999,0,0.00
2013-4-26,51,41,26,-100,-100,-100,0,0,100,0.00,40.00,0,-999,0,0.00
2013-4-27,55,45,36,-100,-100,-100,0,0,100,0.00,40.00,0,-999,0,0.00
2013-4-28,43,37,33,-100,-100,-100,0,0,100,0.00,40.00,0,-999,0,0.01
2013-4-29,48,38,24,-100,-100,-100,0,0,100,0.00,40.00,0,-999,0,0.00
2013-4-30,27,22,17,-100,-100,-100,0,0,100,0.00,40.00,0,-999,0,0.02
2013-5-1,29,21,14,-100,-100,-100,0,0,100,0.00,40.00,0,-999,0,0.01
2013-5-2,40,29,15,-100,-100,-100,0,0,100,0.00,40.00,0,-999,0,0.01
2013-5-3,48,36,25,-100,-100,-100,0,0,100,0.00,40.00,0,-999,0,0.01
2013-5-4,40,33,29,-100,-100,-100,0,0,100,0.00,40.00,0,-999,0,0.00
2013-5-5,44,34,26,-100,-100,-100,0,0,100,0.00,40.00,0,-999,0,0.00
2013-5-6,53,43,30,-100,-100,-100,0,0,100,0.00,40.00,0,-999,0,0.00
2013-5-7,55,44,36,-100,-100,-100,0,0,100,0.00,40.00,0,-999,0,0.00
2013-5-8,51,42,33,-100,-100,-100,0,0,100,0.00,40.00,0,-999,0,0.00
2013-5-9,49,41,31,-100,-100,-100,0,0,100,0.00,40.00,0,-999,0,0.00
2013-5-10,53,40,31,-100,-100,-100,0,0,100,0.00,40.00,0,-999,0,0.01
2013-5-11,56,44,31,-100,-100,-100,0,0,100,0.00,40.00,0,-999,0,0.00
2013-5-12,63,52,38,-100,-100,-100,0,0,100,0.00,40.00,0,-999,0,0.01
2013-5-13,67,58,49,-100,-100,-100,0,0,100,0.00,40.00,0,-999,0,0.01
2013-5-14,64,56,40,-100,-100,-100,0,0,100,0.00,40.00,0,-999,0,0.00
2013-5-15,61,49,38,-100,-100,-100,0,0,100,0.00,40.00,0,-999,0,0.01
2013-5-16,55,46,39,-100,-100,-100,0,0,100,0.00,40.00,0,-999,0,0.01
2013-5-17,60,44,37,-100,-100,-100,0,0,100,0.00,40.00,0,-999,0,0.01
2013-5-18,50,40,33,-100,-100,-100,0,0,100,0.00,40.00,0,-999,0,0.01
2013-5-19,39,36,35,-100,-100,-100,0,0,100,0.00,40.00,0,-999,0,0.00
2013-5-20,36,34,30,-100,-100,-100,0,0,100,0.00,40.00,0,-999,0,0.04
2013-5-21,49,39,31,-100,-100,-100,0,0,100,0.00,40.00,0,-999,0,0.02
2013-5-22,52,43,36,-100,-100,-100,0,0,100,0.00,40.00,0,-999,0,0.01
2013-5-23,62,50,36,-100,-100,-100,0,0,100,0.00,40.00,0,-999,0,0.02
2013-5-24,55,46,39,-100,-100,-100,0,0,100,0.00,40.00,0,-999,0,0.01
2013-5-25,62,51,40,-100,-100,-100,0,0,100,0.00,40.00,0,-999,0,0.01
2013-5-26,56,46,35,-100,-100,-100,0,0,100,0.00,40.00,0,-999,0,0.00
2013-5-27,51,42,35,-100,-100,-100,0,0,100,0.00,40.00,0,-999,0,0.00
2013-5-28,50,41,35,-100,-100,-100,0,0,100,0.00,40.00,0,-999,0,0.01
2013-5-29,42,38,36,-100,-100,-100,0,0,100,0.00,40.00,0,-999,0,0.01
2013-5-30,37,35,32,-100,-100,-100,0,0,100,0.00,40.00,0,-999,0,0.02
2013-5-31,35,33,31,-100,-100,-100,0,0,100,0.00,40.00,0,-999,0,0.04
2013-6-1,52,39,30,-100,-100,-100,0,0,100,0.00,40.00,0,-999,0,0.02
2013-6-2,62,50,38,-100,-100,-100,0,0,100,0.00,40.00,0,-999,0,0.01
2013-6-3,48,42,35,-100,-100,-100,0,0,100,0.00,40.00,0,-999,0,0.02
2013-6-4,42,36,30,-100,-100,-100,0,0,100,0.00,40.00,0,-999,0,0.00
2013-6-5,50,40,27,-100,-100,-100,0,0,100,0.00,40.00,0,-999,0,0.03
2013-6-6,58,47,37,-100,-100,-100,0,0,100,0.00,40.00,0,-999,0,0.03
2013-6-7,60,51,44,-100,-100,-100,0,0,100,0.00,40.00,0,-999,0,0.01
2013-6-8,57,46,38,-100,-100,-100,0,0,100,0.00,40.00,0,-999,0,0.02
2013-6-9,67,55,39,-100,-100,-100,0,0,100,0.00,40.00,0,-999,0,0.02
2013-6-10,71,58,45,-100,-100,-100,0,0,100,0.00,40.00,0,-999,0,0.01
2013-6-11,71,55,43,-100,-100,-100,0,0,100,0.00,40.00,0,-999,0,0.02
2013-6-12,66,51,42,-100,-100,-100,0,0,100,0.00,40.00,0,-999,0,0.01
2013-6-13,66,53,43,-100,-100,-100,0,0,100,0.00,40.00,0,-999,0,0.01
2013-6-14,53,45,36,-100,-100,-100,0,0,100,0.00,40.00,0,-999,0,0.03
2013-6-15,59,47,35,-100,-100,-100,0,0,100,0.00,40.00,0,-999,0,0.02
2013-6-16,63,51,39,-100,-100,-100,0,0,100,0.00,40.00,0,-999,0,0.01
2013-6-17,61,51,42,-100,-100,-100,0,0,100,0.00,40.00,0,-999,0,0.01
2013-6-18,67,55,46,-100,-100,-100,0,0,100,0.00,40.00,0,-999,0,0.01
2013-6-19,71,61,51,-100,-100,-100,0,0,100,0.00,40.00,0,-999,0,0.02
2013-6-20,59,48,43,-100,-100,-100,0,0,100,0.00,40.00,0,-999,0,0.00
2013-6-22,54,44,38,-100,-100,-100,0,0,100,0.00,40.00,0,-999,0,0.00
2013-6-23,58,48,36,-100,-100,-100,0,0,100,0.00,40.00,0,-999,0,0.06
2013-6-24,68,58,44,-100,-100,-100,0,0,100,0.00,40.00,0,-999,0,0.01
2013-6-25,62,54,46,-100,-100,-100,0,0,100,0.00,40.00,0,-999,0,0.00
2013-6-26,66,57,49,-100,-100,-100,0,0,100,0.00,40.00,0,-999,0,0.01
2013-6-27,73,59,49,-100,-100,-100,0,0,100,0.00,40.00,0,-999,0,0.00
2013-6-28,68,59,50,-100,-100,-100,0,0,100,0.00,40.00,0,-999,0,0.00
2013-6-29,68,58,48,-100,-100,-100,0,0,100,0.00,40.00,0,-999,0,0.01
2013-6-30,69,60,50,-100,-100,-100,0,0,100,0.00,40.00,0,-999,0,0.01
2013-7-1,66,57,48,-100,-100,-100,0,0,100,0.00,40.00,0,-999,0,0.00
2013-7-2,71,58,46,-100,-100,-100,0,0,100,0.00,40.00,0,-999,0,0.01
2013-7-3,69,60,51,-100,-100,-100,0,0,100,0.00,40.00,0,-999,0,0.01
2013-7-4,70,55,49,-100,-100,-100,0,0,100,0.00,40.00,0,-999,0,0.03
2013-7-5,58,53,48,-100,-100,-100,0,0,100,0.00,40.00,0,-999,0,0.07
2013-7-6,68,53,46,-100,-100,-100,0,0,100,0.00,40.00,0,-999,0,0.01
2013-7-7,71,57,48,-100,-100,-100,0,0,100,0.00,40.00,0,-999,0,0.01
2013-7-8,72,58,50,-100,-100,-100,0,0,100,0.00,40.00,0,-999,0,0.01
2013-7-9,64,54,46,-100,-100,-100,0,0,100,0.00,40.00,0,-999,0,0.01
2013-7-10,74,61,47,-100,-100,-100,0,0,100,0.00,40.00,0,-999,0,0.02
2013-7-11,77,63,55,-100,-100,-100,0,0,100,0.00,40.00,0,-999,0,0.00
2013-7-12,65,55,49,-100,-100,-100,0,0,100,0.00,40.00,0,-999,0,0.01
2013-7-13,70,60,51,-100,-100,-100,0,0,100,0.00,40.00,0,-999,0,0.02
2013-7-14,68,56,47,-100,-100,-100,0,0,100,0.00,40.00,0,-999,0,0.01
2013-7-15,74,61,54,-100,-100,-100,0,0,100,0.00,40.00,0,-999,0,0.01
2013-7-16,70,56,51,-100,-100,-100,0,0,100,0.00,40.00,0,-999,0,0.00
2013-7-17,71,61,51,-100,-100,-100,0,0,100,0.00,40.00,0,-999,0,0.01
2013-7-18,68,62,53,-100,-100,-100,0,0,100,0.00,40.00,0,-999,0,0.01
2013-7-19,71,61,50,-100,-100,-100,0,0,100,0.00,40.00,0,-999,0,0.01
2013-7-20,67,57,48,-100,-100,-100,0,0,100,0.00,40.00,0,-999,0,0.00
2013-7-21,71,61,51,-100,-100,-100,0,0,100,0.00,40.00,0,-999,0,0.00
2013-7-22,75,62,49,-100,-100,-100,0,0,100,0.00,40.00,0,-999,0,0.01
2013-7-23,68,57,46,-100,-100,-100,0,0,100,0.00,40.00,0,-999,0,0.01
2013-7-24,67,59,47,-100,-100,-100,0,0,100,0.00,40.00,0,-999,0,0.00
2013-7-25,63,54,43,-100,-100,-100,0,0,100,0.00,40.00,0,-999,0,0.97
2013-7-26,68,57,46,-100,-100,-100,0,0,100,0.00,40.00,0,-999,0,0.96
2013-7-27,68,56,47,-100,-100,-100,0,0,100,0.00,40.00,0,-999,0,0.00
2013-7-28,59,53,46,-100,-100,-100,0,0,100,0.00,40.00,0,-999,0,0.01
2013-7-29,64,52,46,-100,-100,-100,0,0,100,0.00,40.00,0,-999,0,0.00
2013-7-30,65,52,43,-100,-100,-100,0,0,100,0.00,40.00,0,-999,0,0.02
2013-7-31,66,55,41,-100,-100,-100,0,0,100,0.00,40.00,0,-999,0,0.01
2013-8-1,62,56,47,-100,-100,-100,0,0,100,0.00,40.00,0,-999,0,0.01
2013-8-2,68,57,47,-100,-100,-100,0,0,100,0.00,40.00,0,-999,0,0.00
2013-8-3,69,56,44,-100,-100,-100,0,0,100,0.00,40.00,0,-999,0,0.01
2013-8-4,72,59,48,-100,-100,-100,0,0,100,0.00,40.00,0,-999,0,0.00
2013-8-5,72,57,47,-100,-100,-100,0,0,100,0.00,40.00,0,-999,0,0.00
2013-8-6,62,54,41,-100,-100,-100,0,0,100,0.00,40.00,0,-999,0,0.01
2013-8-7,65,54,43,-100,-100,-100,0,0,100,0.00,40.00,0,-999,0,0.00
2013-8-8,63,52,42,-100,-100,-100,0,0,100,0.00,40.00,0,-999,0,0.01
2013-8-9,57,50,46,-100,-100,-100,0,0,100,0.00,40.00,0,-999,0,0.01
2013-8-10,68,55,47,-100,-100,-100,0,0,100,0.00,40.00,0,-999,0,0.00
2013-8-11,69,55,45,-100,-100,-100,0,0,100,0.00,40.00,0,-999,0,0.00
2013-8-12,66,56,49,-100,-100,-100,0,0,100,0.00,40.00,0,-999,0,0.00
2013-8-13,57,51,43,-100,-100,-100,0,0,100,0.00,40.00,0,-999,0,0.01
2013-8-14,60,51,42,-100,-100,-100,0,0,100,0.00,40.00,0,-999,0,0.01
2013-8-15,68,58,45,-100,-100,-100,0,0,100,0.00,40.00,0,-999,0,0.00
2013-8-21,67,59,51,-100,-100,-100,0,0,100,0.00,40.00,0,-999,0,0.00
2013-8-22,69,59,53,-100,-100,-100,0,0,100,0.00,40.00,0,-999,0,0.00
2013-8-23,73,63,54,-100,-100,-100,0,0,100,0.00,40.00,0,-999,0,0.00
2013-8-24,62,56,48,-100,-100,-100,0,0,100,0.00,40.00,0,-999,0,0.02
2013-8-25,69,59,51,-100,-100,-100,0,0,100,0.00,40.00,0,-999,0,0.00
2013-8-26,69,61,56,-100,-100,-100,0,0,100,0.00,40.00,0,-999,0,0.00
2013-8-27,67,58,52,-100,-100,-100,0,0,100,0.00,40.00,0,-999,0,0.00
2013-8-28,72,66,56,-100,-100,-100,0,0,100,0.00,40.00,0,-999,0,0.00
2013-8-29,69,59,51,-100,-100,-100,0,0,100,0.00,40.00,0,-999,0,0.01
2013-8-30,74,63,54,-100,-100,-100,0,0,100,0.00,40.00,0,-999,0,0.00
2013-8-31,63,53,43,-100,-100,-100,0,0,100,0.00,40.00,0,-999,0,0.00
2013-9-1,71,59,45,-100,-100,-100,0,0,100,0.00,40.00,0,-999,0,0.00
2013-9-2,70,60,52,-100,-100,-100,0,0,100,0.00,40.00,0,-999,0,0.00
2013-9-3,65,56,52,-100,-100,-100,0,0,100,0.00,40.00,0,-999,0,0.01
2013-9-4,72,63,50,-100,-100,-100,0,0,100,0.00,40.00,0,-999,0,0.00
2013-9-5,75,64,52,-100,-100,-100,0,0,100,0.00,40.00,0,-999,0,0.01
2013-9-6,74,62,52,-100,-100,-100,0,0,100,0.00,40.00,0,-999,0,0.00
2013-9-12,60,51,44,-100,-100,-100,0,0,100,0.00,40.00,0,-999,0,0.00
2013-9-13,58,50,45,-100,-100,-100,0,0,100,0.00,40.00,0,-999,0,0.03
2013-9-14,52,47,42,-100,-100,-100,0,0,100,0.00,40.00,0,-999,0,0.06
2013-9-15,52,47,42,-100,-100,-100,0,0,100,0.00,40.00,0,-999,0,0.02
2013-9-16,65,53,45,-100,-100,-100,0,0,100,0.00,40.00,0,-999,0,0.00
2013-9-17,65,51,43,-100,-100,-100,0,0,100,0.00,40.00,0,-999,0,0.01
2013-9-18,44,38,33,-100,-100,-100,0,0,100,0.00,40.00,0,-999,0,0.02
2013-9-19,42,35,30,-100,-100,-100,0,0,100,0.00,40.00,0,-999,0,0.01
2013-9-20,61,48,34,-100,-100,-100,0,0,100,0.00,40.00,0,-999,0,0.00
2013-9-21,64,56,48,-100,-100,-100,0,0,100,0.00,40.00,0,-999,0,0.00
2013-9-22,62,52,43,-100,-100,-100,0,0,100,0.00,40.00,0,-999,0,0.01
2013-9-23,48,42,37,-100,-100,-100,0,0,100,0.00,40.00,0,-999,0,0.01
2013-9-24,56,48,37,-100,-100,-100,0,0,100,0.00,40.00,0,-999,0,0.00
2013-9-25,42,38,34,-100,-100,-100,0,0,100,0.00,40.00,0,-999,0,0.00
2013-9-26,37,32,27,-100,-100,-100,0,0,100,0.00,40.00,0,-999,0,0.02
2013-9-27,33,27,23,-100,-100,-100,0,0,100,0.00,40.00,0,-999,0,0.02
2013-9-28,40,32,24,-100,-100,-100,0,0,100,0.00,40.00,0,-999,0,0.01
2013-9-29,45,41,37,-100,-100,-100,0,0,100,0.00,40.00,0,-999,0,0.00
2013-9-30,48,44,40,-100,-100,-100,0,0,100,0.00,40.00,0,-999,0,0.01
2013-10-1,48,44,40,-100,-100,-100,0,0,100,0.00,40.00,0,-999,0,0.00
2013-10-2,41,35,30,-100,-100,-100,0,0,100,0.00,40.00,0,-999,0,0.01
2013-10-3,33,30,25,-100,-100,-100,0,0,100,0.00,40.00,0,-999,0,0.01
2013-10-4,23,20,17,-100,-100,-100,0,0,100,0.00,40.00,0,-999,0,0.07
2013-10-5,40,32,15,-100,-100,-100,0,0,100,0.00,40.00,0,-999,0,0.01
2013-10-6,53,42,32,-100,-100,-100,0,0,100,0.00,40.00,0,-999,0,0.00
2013-10-7,61,58,52,-100,-100,-100,0,0,100,0.00,40.00,0,-999,0,0.00
2013-10-8,52,41,33,-100,-100,-100,0,0,100,0.00,40.00,0,-999,0,0.00
2013-10-9,42,34,31,-100,-100,-100,0,0,100,0.00,40.00,0,-999,0,0.00
2013-10-10,43,37,33,-100,-100,-100,0,0,100,0.00,40.00,0,-999,0,0.00
2013-10-11,33,28,22,-100,-100,-100,0,0,100,0.00,40.00,0,-999,0,0.00
2013-10-12,39,30,21,-100,-100,-100,0,0,100,0.00,40.00,0,-999,0,0.01
2013-10-13,41,36,31,-100,-100,-100,0,0,100,0.00,40.00,0,-999,0,0.00
2013-10-21,36,33,30,-100,-100,-100,0,0,100,0.00,40.00,0,-999,0,0.00
2013-10-22,48,37,31,-100,-100,-100,0,0,100,0.00,40.00,0,-999,0,0.00
2013-10-23,47,34,29,-100,-100,-100,0,0,100,0.00,40.00,0,-999,0,0.00
2013-10-24,47,39,33,-100,-100,-100,0,0,100,0.00,40.00,0,-999,0,0.00
2013-10-25,35,34,33,-100,-100,-100,0,0,100,0.00,40.00,0,-999,0,0.00
2013-10-26,51,44,34,-100,-100,-100,0,0,100,0.00,40.00,0,-999,0,0.00
2013-10-27,29,29,29,-100,-100,-100,0,0,100,0.00,40.00,0,-999,0,0.00
2013-10-28,31,24,20,-100,-100,-100,0,0,100,0.00,40.00,0,-999,0,0.00
2013-10-29,40,28,19,-100,-100,-100,0,0,100,0.00,40.00,0,-999,0,0.00
2013-10-30,33,30,27,-100,-100,-100,0,0,100,0.00,40.00,0,-999,0,0.00
2013-10-31,36,30,25,-100,-100,-100,0,0,100,0.00,40.00,0,-999,0,0.00
2013-11-1,31,26,24,-100,-100,-100,0,0,100,0.00,40.00,0,-999,0,0.00
2013-11-2,46,41,37,-100,-100,-100,0,0,100,0.00,40.00,0,-999,0,0.00
2013-11-3,36,28,15,-100,-100,-100,0,0,100,0.00,40.00,0,-999,0,0.00
2013-11-12,49,41,25,-100,-100,-100,0,0,100,0.00,40.00,0,-999,0,0.00
2013-11-13,44,41,38,-100,-100,-100,0,0,100,0.00,40.00,0,-999,0,0.00
2013-11-14,32,28,25,-100,-100,-100,0,0,100,0.00,40.00,0,-999,0,0.00
2013-11-15,30,25,22,-100,-100,-100,0,0,100,0.00,40.00,0,-999,0,0.00
2013-11-16,28,22,20,-100,-100,-100,0,0,100,0.00,40.00,0,-999,0,0.00
2013-11-17,20,20,20,-100,-100,-100,0,0,100,0.00,40.00,0,-999,0,0.00
2013-11-18,38,31,23,-100,-100,-100,0,0,100,0.00,40.00,0,-999,0,0.01
2013-11-19,39,34,30,-100,-100,-100,0,0,100,0.00,40.00,0,-999,0,0.00
2013-11-20,30,20,7,-100,-100,-100,0,0,100,0.00,40.00,0,-999,0,0.00
2013-11-21,16,8,1,-100,-100,-100,0,0,100,0.00,40.00,0,-999,0,0.01
2013-11-22,27,19,14,-100,-100,-100,0,0,100,0.00,40.00,0,-999,0,0.01
2013-11-23,39,29,18,-100,-100,-100,0,0,100,0.00,40.00,0,-999,0,0.01
2013-11-24,38,30,26,-100,-100,-100,0,0,100,0.00,40.00,0,-999,0,0.01
2013-11-25,31,26,22,-100,-100,-100,0,0,100,0.00,40.00,0,-999,0,0.00
2013-11-26,37,30,25,-100,-100,-100,0,0,100,0.00,40.00,0,-999,0,0.00
2013-11-27,42,32,26,-100,-100,-100,0,0,100,0.00,40.00,0,-999,0,0.00
2013-11-28,40,36,33,-100,-100,-100,0,0,100,0.00,40.00,0,-999,0,0.00
2013-11-29,40,33,28,-100,-100,-100,0,0,100,0.00,40.00,0,-999,0,0.00
2013-11-30,33,29,27,-100,-100,-100,0,0,100,0.00,40.00,0,-999,0,0.00
2013-12-1,31,27,25,-100,-100,-100,0,0,100,0.00,40.00,0,-999,0,0.00
2013-12-2,35,31,23,-100,-100,-100,0,0,100,0.00,40.00,0,-999,0,0.00
2013-12-3,-2,-8,-15,-100,-100,-100,0,0,100,0.00,40.00,0,-999,0,0.01
2013-12-4,-7,-13,-17,-100,-100,-100,0,0,100,0.00,40.00,0,-999,0,0.00
2013-12-9,12,6,-12,-100,-100,-100,0,0,100,0.00,40.00,0,-999,0,0.02
2013-12-10,13,9,6,-100,-100,-100,0,0,100,0.00,40.00,0,-999,0,0.01
2013-12-11,23,16,6,-100,-100,-100,0,0,100,0.00,40.00,0,-999,0,0.00
2013-12-12,36,28,22,-100,-100,-100,0,0,100,0.00,40.00,0,-999,0,0.00
2013-12-13,25,23,20,-100,-100,-100,0,0,100,0.00,40.00,0,-999,0,0.00
2013-12-14,28,23,18,-100,-100,-100,0,0,100,0.00,40.00,0,-999,0,0.00
2013-12-15,32,30,26,-100,-100,-100,0,0,100,0.00,40.00,0,-999,0,0.00
2013-12-16,33,29,26,-100,-100,-100,0,0,100,0.00,40.00,0,-999,0,0.00
2013-12-17,40,34,27,-100,-100,-100,0,0,100,0.00,40.00,0,-999,0,0.00
2013-12-18,38,34,27,-100,-100,-100,0,0,100,0.00,40.00,0,-999,0,0.00
2013-12-19,25,13,4,-100,-100,-100,0,0,100,0.00,40.00,0,-999,0,0.00
2013-12-20,17,12,7,-100,-100,-100,0,0,100,0.00,40.00,0,-999,0,0.00
2013-12-21,16,13,10,-100,-100,-100,0,0,100,0.00,40.00,0,-999,0,0.01
2013-12-22,13,10,7,-100,-100,-100,0,0,100,0.00,40.00,0,-999,0,0.00
2013-12-23,28,23,9,-100,-100,-100,0,0,100,0.00,40.00,0,-999,0,0.01
2013-12-24,22,18,14,-100,-100,-100,0,0,100,0.00,40.00,0,-999,0,0.01
2013-12-25,31,18,11,-100,-100,-100,0,0,100,0.00,40.00,0,-999,0,0.00
2013-12-26,35,29,24,-100,-100,-100,0,0,100,0.00,40.00,0,-999,0,0.00
2013-12-27,32,31,30,-100,-100,-100,0,0,100,0.00,40.00,0,-999,0,0.00
2013-12-28,13,12,12,-100,-100,-100,0,0,100,0.00,40.00,0,-999,0,0.00
2013-12-29,21,15,11,-100,-100,-100,0,0,100,0.00,40.00,0,-999,0,0.00
2013-12-30,23,22,21,-100,-100,-100,0,0,100,0.00,40.00,0,-999,0,0.00
2013-12-31,26,26,25,-100,-100,-100,0,0,100,0.00,40.00,0,-999,0,0.00
2014-1-1,20,17,13,-100,-100,-100,0,0,100,0.00,40.00,0,-999,0,0.02
2014-1-2,28,20,13,-100,-100,-100,0,0,100,0.00,40.00,0,-999,0,0.00